sensor_id;sensor_type;location;lat;lon;timestamp;P1;durP1;ratioP1;P2;durP2;ratioP2
8407;SDS011;4241;48.452;9.216;2024-02-26T00:02:01;425.30;;;129.87;;
8407;SDS011;4241;48.452;9.216;2024-02-26T00:04:29;411.03;;;123.17;;
8407;SDS011;4241;48.452;9.216;2024-02-26T00:06:56;426.97;;;127.17;;
8407;SDS011;4241;48.452;9.216;2024-02-26T00:09:23;420.10;;;123.53;;
8407;SDS011;4241;48.452;9.216;2024-02-26T00:11:50;430.20;;;130.67;;
8407;SDS011;4241;48.452;9.216;2024-02-26T00:14:16;419.77;;;124.47;;
8407;SDS011;4241;48.452;9.216;2024-02-26T00:16:43;423.00;;;127.80;;
8407;SDS011;4241;48.452;9.216;2024-02-26T00:19:11;423.53;;;124.03;;
8407;SDS011;4241;48.452;9.216;2024-02-26T00:21:41;429.47;;;128.67;;
8407;SDS011;4241;48.452;9.216;2024-02-26T00:24:07;419.80;;;122.37;;
8407;SDS011;4241;48.452;9.216;2024-02-26T00:26:34;422.53;;;126.53;;
8407;SDS011;4241;48.452;9.216;2024-02-26T00:29:01;419.07;;;123.10;;
8407;SDS011;4241;48.452;9.216;2024-02-26T00:31:28;421.67;;;125.30;;
8407;SDS011;4241;48.452;9.216;2024-02-26T00:33:55;416.93;;;122.30;;
8407;SDS011;4241;48.452;9.216;2024-02-26T00:36:22;421.20;;;124.03;;
8407;SDS011;4241;48.452;9.216;2024-02-26T00:38:50;414.97;;;122.83;;
8407;SDS011;4241;48.452;9.216;2024-02-26T00:41:17;419.80;;;124.57;;
8407;SDS011;4241;48.452;9.216;2024-02-26T00:43:44;416.73;;;122.30;;
8407;SDS011;4241;48.452;9.216;2024-02-26T00:46:11;419.53;;;125.27;;
8407;SDS011;4241;48.452;9.216;2024-02-26T00:48:37;414.10;;;122.20;;
8407;SDS011;4241;48.452;9.216;2024-02-26T00:51:04;422.60;;;127.63;;
8407;SDS011;4241;48.452;9.216;2024-02-26T00:53:32;417.90;;;125.33;;
8407;SDS011;4241;48.452;9.216;2024-02-26T00:56:00;421.33;;;125.57;;
8407;SDS011;4241;48.452;9.216;2024-02-26T00:58:27;414.77;;;120.83;;
8407;SDS011;4241;48.452;9.216;2024-02-26T01:00:54;421.63;;;126.80;;
8407;SDS011;4241;48.452;9.216;2024-02-26T01:03:21;420.23;;;126.27;;
8407;SDS011;4241;48.452;9.216;2024-02-26T01:05:48;426.03;;;128.90;;
8407;SDS011;4241;48.452;9.216;2024-02-26T01:08:14;418.00;;;121.67;;
8407;SDS011;4241;48.452;9.216;2024-02-26T01:10:41;425.77;;;127.23;;
8407;SDS011;4241;48.452;9.216;2024-02-26T01:13:09;417.13;;;122.23;;
8407;SDS011;4241;48.452;9.216;2024-02-26T01:15:36;428.53;;;128.17;;
8407;SDS011;4241;48.452;9.216;2024-02-26T01:18:03;424.93;;;125.03;;
8407;SDS011;4241;48.452;9.216;2024-02-26T01:20:30;429.87;;;127.90;;
8407;SDS011;4241;48.452;9.216;2024-02-26T01:22:57;423.70;;;123.83;;
8407;SDS011;4241;48.452;9.216;2024-02-26T01:25:24;431.47;;;129.20;;
8407;SDS011;4241;48.452;9.216;2024-02-26T01:27:51;423.57;;;124.67;;
8407;SDS011;4241;48.452;9.216;2024-02-26T01:30:19;429.47;;;129.03;;
8407;SDS011;4241;48.452;9.216;2024-02-26T01:32:45;424.30;;;124.43;;
8407;SDS011;4241;48.452;9.216;2024-02-26T01:35:12;426.77;;;127.23;;
8407;SDS011;4241;48.452;9.216;2024-02-26T01:37:39;417.43;;;122.97;;
8407;SDS011;4241;48.452;9.216;2024-02-26T01:40:07;427.90;;;129.90;;
8407;SDS011;4241;48.452;9.216;2024-02-26T01:42:37;419.47;;;123.47;;
8407;SDS011;4241;48.452;9.216;2024-02-26T01:45:05;423.77;;;126.63;;
8407;SDS011;4241;48.452;9.216;2024-02-26T01:47:34;417.60;;;122.70;;
8407;SDS011;4241;48.452;9.216;2024-02-26T01:50:01;424.87;;;128.63;;
8407;SDS011;4241;48.452;9.216;2024-02-26T01:52:29;385.83;;;117.80;;
8407;SDS011;4241;48.452;9.216;2024-02-26T01:54:55;394.77;;;122.27;;
8407;SDS011;4241;48.452;9.216;2024-02-26T01:57:22;386.87;;;117.43;;
8407;SDS011;4241;48.452;9.216;2024-02-26T01:59:49;396.20;;;122.93;;
8407;SDS011;4241;48.452;9.216;2024-02-26T02:02:16;393.30;;;122.33;;
8407;SDS011;4241;48.452;9.216;2024-02-26T02:04:44;397.53;;;122.27;;
8407;SDS011;4241;48.452;9.216;2024-02-26T02:07:11;386.10;;;118.37;;
8407;SDS011;4241;48.452;9.216;2024-02-26T02:09:38;399.13;;;123.07;;
8407;SDS011;4241;48.452;9.216;2024-02-26T02:12:06;393.03;;;120.40;;
8407;SDS011;4241;48.452;9.216;2024-02-26T02:14:33;400.53;;;123.97;;
8407;SDS011;4241;48.452;9.216;2024-02-26T02:16:59;392.13;;;117.77;;
8407;SDS011;4241;48.452;9.216;2024-02-26T02:19:26;401.73;;;123.50;;
8407;SDS011;4241;48.452;9.216;2024-02-26T02:21:54;398.90;;;121.90;;
8407;SDS011;4241;48.452;9.216;2024-02-26T02:24:21;401.07;;;126.37;;
8407;SDS011;4241;48.452;9.216;2024-02-26T02:26:48;390.40;;;117.93;;
8407;SDS011;4241;48.452;9.216;2024-02-26T02:29:15;395.40;;;121.73;;
8407;SDS011;4241;48.452;9.216;2024-02-26T02:31:41;390.60;;;118.07;;
8407;SDS011;4241;48.452;9.216;2024-02-26T02:34:09;395.53;;;121.10;;
8407;SDS011;4241;48.452;9.216;2024-02-26T02:36:47;391.03;;;120.20;;
8407;SDS011;4241;48.452;9.216;2024-02-26T02:39:16;388.40;;;117.57;;
8407;SDS011;4241;48.452;9.216;2024-02-26T02:41:43;392.73;;;119.73;;
8407;SDS011;4241;48.452;9.216;2024-02-26T02:44:10;393.70;;;118.27;;
8407;SDS011;4241;48.452;9.216;2024-02-26T02:46:37;393.33;;;121.17;;
8407;SDS011;4241;48.452;9.216;2024-02-26T02:49:07;394.63;;;120.70;;
8407;SDS011;4241;48.452;9.216;2024-02-26T02:51:34;390.30;;;119.10;;
8407;SDS011;4241;48.452;9.216;2024-02-26T02:54:01;400.37;;;121.90;;
8407;SDS011;4241;48.452;9.216;2024-02-26T02:56:29;401.13;;;122.40;;
8407;SDS011;4241;48.452;9.216;2024-02-26T02:58:56;404.30;;;122.50;;
8407;SDS011;4241;48.452;9.216;2024-02-26T03:01:23;405.37;;;123.00;;
8407;SDS011;4241;48.452;9.216;2024-02-26T03:03:50;404.80;;;123.10;;
8407;SDS011;4241;48.452;9.216;2024-02-26T03:06:17;403.37;;;122.83;;
8407;SDS011;4241;48.452;9.216;2024-02-26T03:08:44;404.90;;;121.50;;
8407;SDS011;4241;48.452;9.216;2024-02-26T03:11:12;408.67;;;123.30;;
8407;SDS011;4241;48.452;9.216;2024-02-26T03:13:41;394.77;;;119.30;;
8407;SDS011;4241;48.452;9.216;2024-02-26T03:16:08;407.63;;;128.97;;
8407;SDS011;4241;48.452;9.216;2024-02-26T03:18:35;389.53;;;116.73;;
8407;SDS011;4241;48.452;9.216;2024-02-26T03:21:04;395.20;;;122.17;;
8407;SDS011;4241;48.452;9.216;2024-02-26T03:23:31;392.40;;;120.07;;
8407;SDS011;4241;48.452;9.216;2024-02-26T03:26:01;396.00;;;121.70;;
8407;SDS011;4241;48.452;9.216;2024-02-26T03:28:28;385.37;;;117.40;;
8407;SDS011;4241;48.452;9.216;2024-02-26T03:30:57;390.27;;;120.37;;
8407;SDS011;4241;48.452;9.216;2024-02-26T03:33:23;386.60;;;118.17;;
8407;SDS011;4241;48.452;9.216;2024-02-26T03:35:50;391.00;;;120.33;;
8407;SDS011;4241;48.452;9.216;2024-02-26T03:38:17;377.37;;;115.67;;
8407;SDS011;4241;48.452;9.216;2024-02-26T03:40:44;385.30;;;119.57;;
8407;SDS011;4241;48.452;9.216;2024-02-26T03:43:11;378.60;;;114.23;;
8407;SDS011;4241;48.452;9.216;2024-02-26T03:45:38;387.97;;;119.40;;
8407;SDS011;4241;48.452;9.216;2024-02-26T03:48:06;383.47;;;115.17;;
8407;SDS011;4241;48.452;9.216;2024-02-26T03:50:33;392.33;;;121.93;;
8407;SDS011;4241;48.452;9.216;2024-02-26T03:53:00;379.70;;;115.47;;
8407;SDS011;4241;48.452;9.216;2024-02-26T03:55:27;389.23;;;120.47;;
8407;SDS011;4241;48.452;9.216;2024-02-26T03:57:54;381.33;;;117.17;;
8407;SDS011;4241;48.452;9.216;2024-02-26T04:00:21;388.13;;;119.97;;
8407;SDS011;4241;48.452;9.216;2024-02-26T04:02:48;381.33;;;115.13;;
8407;SDS011;4241;48.452;9.216;2024-02-26T04:05:16;375.70;;;116.27;;
8407;SDS011;4241;48.452;9.216;2024-02-26T04:07:42;369.13;;;112.83;;
8407;SDS011;4241;48.452;9.216;2024-02-26T04:10:09;384.17;;;120.00;;
8407;SDS011;4241;48.452;9.216;2024-02-26T04:12:37;375.33;;;113.83;;
8407;SDS011;4241;48.452;9.216;2024-02-26T04:15:06;388.97;;;120.73;;
8407;SDS011;4241;48.452;9.216;2024-02-26T04:17:33;377.73;;;114.33;;
8407;SDS011;4241;48.452;9.216;2024-02-26T04:20:00;381.10;;;118.17;;
8407;SDS011;4241;48.452;9.216;2024-02-26T04:22:29;363.50;;;113.23;;
8407;SDS011;4241;48.452;9.216;2024-02-26T04:24:56;379.20;;;118.10;;
8407;SDS011;4241;48.452;9.216;2024-02-26T04:27:23;392.13;;;117.20;;
8407;SDS011;4241;48.452;9.216;2024-02-26T04:29:50;399.80;;;122.67;;
8407;SDS011;4241;48.452;9.216;2024-02-26T04:32:16;388.00;;;117.20;;
8407;SDS011;4241;48.452;9.216;2024-02-26T04:34:43;394.27;;;122.20;;
8407;SDS011;4241;48.452;9.216;2024-02-26T04:37:10;387.00;;;117.53;;
8407;SDS011;4241;48.452;9.216;2024-02-26T04:39:38;389.20;;;119.50;;
8407;SDS011;4241;48.452;9.216;2024-02-26T04:42:05;379.77;;;116.33;;
8407;SDS011;4241;48.452;9.216;2024-02-26T04:44:32;393.43;;;122.33;;
8407;SDS011;4241;48.452;9.216;2024-02-26T04:46:59;383.00;;;116.73;;
8407;SDS011;4241;48.452;9.216;2024-02-26T04:49:26;388.50;;;119.00;;
8407;SDS011;4241;48.452;9.216;2024-02-26T04:51:53;382.87;;;117.00;;
8407;SDS011;4241;48.452;9.216;2024-02-26T04:54:20;390.13;;;120.23;;
8407;SDS011;4241;48.452;9.216;2024-02-26T04:56:48;386.37;;;117.57;;
8407;SDS011;4241;48.452;9.216;2024-02-26T04:59:15;390.20;;;119.77;;
8407;SDS011;4241;48.452;9.216;2024-02-26T05:01:42;384.50;;;116.83;;
8407;SDS011;4241;48.452;9.216;2024-02-26T05:04:08;390.60;;;119.10;;
8407;SDS011;4241;48.452;9.216;2024-02-26T05:06:36;384.03;;;115.93;;
8407;SDS011;4241;48.452;9.216;2024-02-26T05:09:03;393.03;;;121.03;;
8407;SDS011;4241;48.452;9.216;2024-02-26T05:11:30;384.47;;;116.47;;
8407;SDS011;4241;48.452;9.216;2024-02-26T05:13:58;399.37;;;123.37;;
8407;SDS011;4241;48.452;9.216;2024-02-26T05:16:25;383.03;;;114.60;;
8407;SDS011;4241;48.452;9.216;2024-02-26T05:18:52;396.03;;;122.30;;
8407;SDS011;4241;48.452;9.216;2024-02-26T05:21:20;387.80;;;116.93;;
8407;SDS011;4241;48.452;9.216;2024-02-26T05:23:47;400.10;;;123.50;;
8407;SDS011;4241;48.452;9.216;2024-02-26T05:26:19;388.57;;;115.97;;
8407;SDS011;4241;48.452;9.216;2024-02-26T05:28:46;397.07;;;120.70;;
8407;SDS011;4241;48.452;9.216;2024-02-26T05:31:14;391.53;;;116.37;;
8407;SDS011;4241;48.452;9.216;2024-02-26T05:33:41;397.83;;;121.27;;
8407;SDS011;4241;48.452;9.216;2024-02-26T05:36:08;395.00;;;116.90;;
8407;SDS011;4241;48.452;9.216;2024-02-26T05:38:35;398.13;;;120.30;;
8407;SDS011;4241;48.452;9.216;2024-02-26T05:41:02;388.43;;;116.43;;
8407;SDS011;4241;48.452;9.216;2024-02-26T05:43:29;390.37;;;121.83;;
8407;SDS011;4241;48.452;9.216;2024-02-26T05:45:56;385.63;;;115.20;;
8407;SDS011;4241;48.452;9.216;2024-02-26T05:48:24;388.77;;;118.27;;
8407;SDS011;4241;48.452;9.216;2024-02-26T05:50:51;384.33;;;116.43;;
8407;SDS011;4241;48.452;9.216;2024-02-26T05:53:18;389.13;;;120.30;;
8407;SDS011;4241;48.452;9.216;2024-02-26T05:55:45;380.70;;;113.53;;
8407;SDS011;4241;48.452;9.216;2024-02-26T05:58:11;384.00;;;116.63;;
8407;SDS011;4241;48.452;9.216;2024-02-26T06:00:39;376.27;;;113.90;;
8407;SDS011;4241;48.452;9.216;2024-02-26T06:03:05;386.00;;;118.23;;
8407;SDS011;4241;48.452;9.216;2024-02-26T06:05:34;379.53;;;114.43;;
8407;SDS011;4241;48.452;9.216;2024-02-26T06:08:00;386.00;;;119.60;;
8407;SDS011;4241;48.452;9.216;2024-02-26T06:10:27;380.23;;;116.10;;
8407;SDS011;4241;48.452;9.216;2024-02-26T06:12:54;386.37;;;119.27;;
8407;SDS011;4241;48.452;9.216;2024-02-26T06:15:21;375.20;;;114.10;;
8407;SDS011;4241;48.452;9.216;2024-02-26T06:17:48;386.00;;;118.93;;
8407;SDS011;4241;48.452;9.216;2024-02-26T06:20:15;377.60;;;114.20;;
8407;SDS011;4241;48.452;9.216;2024-02-26T06:22:43;381.00;;;117.25;;
8407;SDS011;4241;48.452;9.216;2024-02-26T06:25:10;363.87;;;111.70;;
8407;SDS011;4241;48.452;9.216;2024-02-26T06:27:37;372.93;;;115.27;;
8407;SDS011;4241;48.452;9.216;2024-02-26T06:30:04;369.40;;;112.63;;
8407;SDS011;4241;48.452;9.216;2024-02-26T06:32:32;373.93;;;114.70;;
8407;SDS011;4241;48.452;9.216;2024-02-26T06:34:58;370.40;;;112.90;;
8407;SDS011;4241;48.452;9.216;2024-02-26T06:37:25;378.80;;;117.13;;
8407;SDS011;4241;48.452;9.216;2024-02-26T06:39:53;376.13;;;115.80;;
8407;SDS011;4241;48.452;9.216;2024-02-26T06:42:20;386.63;;;119.97;;
8407;SDS011;4241;48.452;9.216;2024-02-26T06:44:47;375.43;;;114.73;;
8407;SDS011;4241;48.452;9.216;2024-02-26T06:47:14;386.20;;;119.77;;
8407;SDS011;4241;48.452;9.216;2024-02-26T06:49:40;379.33;;;114.70;;
8407;SDS011;4241;48.452;9.216;2024-02-26T06:52:08;383.10;;;116.97;;
8407;SDS011;4241;48.452;9.216;2024-02-26T06:54:35;382.27;;;114.83;;
8407;SDS011;4241;48.452;9.216;2024-02-26T06:57:03;393.97;;;119.77;;
8407;SDS011;4241;48.452;9.216;2024-02-26T06:59:30;382.83;;;116.67;;
8407;SDS011;4241;48.452;9.216;2024-02-26T07:01:57;393.47;;;120.63;;
8407;SDS011;4241;48.452;9.216;2024-02-26T07:04:24;386.67;;;116.23;;
8407;SDS011;4241;48.452;9.216;2024-02-26T07:06:51;399.80;;;121.90;;
8407;SDS011;4241;48.452;9.216;2024-02-26T07:09:17;392.00;;;117.93;;
8407;SDS011;4241;48.452;9.216;2024-02-26T07:11:44;402.13;;;122.97;;
8407;SDS011;4241;48.452;9.216;2024-02-26T07:14:13;398.43;;;120.90;;
8407;SDS011;4241;48.452;9.216;2024-02-26T07:16:40;404.83;;;122.70;;
8407;SDS011;4241;48.452;9.216;2024-02-26T07:19:06;404.33;;;121.80;;
8407;SDS011;4241;48.452;9.216;2024-02-26T07:21:33;409.00;;;124.33;;
8407;SDS011;4241;48.452;9.216;2024-02-26T07:24:00;406.57;;;122.93;;
8407;SDS011;4241;48.452;9.216;2024-02-26T07:26:27;415.40;;;126.50;;
8407;SDS011;4241;48.452;9.216;2024-02-26T07:28:55;411.73;;;123.27;;
8407;SDS011;4241;48.452;9.216;2024-02-26T07:31:24;416.37;;;124.17;;
8407;SDS011;4241;48.452;9.216;2024-02-26T07:33:50;411.47;;;122.33;;
8407;SDS011;4241;48.452;9.216;2024-02-26T07:36:17;416.13;;;124.37;;
8407;SDS011;4241;48.452;9.216;2024-02-26T07:38:44;407.33;;;122.90;;
8407;SDS011;4241;48.452;9.216;2024-02-26T07:41:11;408.80;;;121.20;;
8407;SDS011;4241;48.452;9.216;2024-02-26T07:43:38;405.13;;;118.70;;
8407;SDS011;4241;48.452;9.216;2024-02-26T07:46:06;415.03;;;123.60;;
8407;SDS011;4241;48.452;9.216;2024-02-26T07:48:34;409.37;;;121.90;;
8407;SDS011;4241;48.452;9.216;2024-02-26T07:51:01;414.90;;;124.17;;
8407;SDS011;4241;48.452;9.216;2024-02-26T07:53:28;410.17;;;121.40;;
8407;SDS011;4241;48.452;9.216;2024-02-26T07:55:55;417.13;;;125.77;;
8407;SDS011;4241;48.452;9.216;2024-02-26T07:58:22;413.57;;;121.93;;
8407;SDS011;4241;48.452;9.216;2024-02-26T08:00:50;417.30;;;125.33;;
8407;SDS011;4241;48.452;9.216;2024-02-26T08:03:17;416.93;;;123.23;;
8407;SDS011;4241;48.452;9.216;2024-02-26T08:05:45;422.97;;;126.27;;
8407;SDS011;4241;48.452;9.216;2024-02-26T08:08:12;419.97;;;124.07;;
8407;SDS011;4241;48.452;9.216;2024-02-26T08:10:39;426.57;;;128.10;;
8407;SDS011;4241;48.452;9.216;2024-02-26T08:13:05;426.03;;;126.40;;
8407;SDS011;4241;48.452;9.216;2024-02-26T08:15:32;429.73;;;127.67;;
8407;SDS011;4241;48.452;9.216;2024-02-26T08:18:00;430.57;;;126.47;;
8407;SDS011;4241;48.452;9.216;2024-02-26T08:20:27;434.57;;;128.63;;
8407;SDS011;4241;48.452;9.216;2024-02-26T08:22:55;429.97;;;125.27;;
8407;SDS011;4241;48.452;9.216;2024-02-26T08:25:22;435.63;;;130.00;;
8407;SDS011;4241;48.452;9.216;2024-02-26T08:27:49;431.60;;;125.33;;
8407;SDS011;4241;48.452;9.216;2024-02-26T08:30:16;435.00;;;127.57;;
8407;SDS011;4241;48.452;9.216;2024-02-26T08:32:43;432.97;;;126.90;;
8407;SDS011;4241;48.452;9.216;2024-02-26T08:35:11;437.10;;;128.83;;
8407;SDS011;4241;48.452;9.216;2024-02-26T08:37:38;431.77;;;124.60;;
8407;SDS011;4241;48.452;9.216;2024-02-26T08:40:07;439.43;;;130.77;;
8407;SDS011;4241;48.452;9.216;2024-02-26T08:42:34;431.33;;;124.13;;
8407;SDS011;4241;48.452;9.216;2024-02-26T08:45:01;441.63;;;131.77;;
8407;SDS011;4241;48.452;9.216;2024-02-26T08:47:28;431.30;;;124.57;;
8407;SDS011;4241;48.452;9.216;2024-02-26T08:49:55;443.73;;;134.63;;
8407;SDS011;4241;48.452;9.216;2024-02-26T08:52:22;434.30;;;126.10;;
8407;SDS011;4241;48.452;9.216;2024-02-26T08:54:48;440.50;;;131.37;;
8407;SDS011;4241;48.452;9.216;2024-02-26T08:57:17;428.50;;;123.47;;
8407;SDS011;4241;48.452;9.216;2024-02-26T08:59:44;436.63;;;131.77;;
8407;SDS011;4241;48.452;9.216;2024-02-26T09:02:10;435.53;;;129.47;;
8407;SDS011;4241;48.452;9.216;2024-02-26T09:04:37;435.80;;;131.60;;
8407;SDS011;4241;48.452;9.216;2024-02-26T09:07:04;437.37;;;136.10;;
8407;SDS011;4241;48.452;9.216;2024-02-26T09:09:31;434.80;;;132.30;;
8407;SDS011;4241;48.452;9.216;2024-02-26T09:11:58;408.20;;;126.03;;
8407;SDS011;4241;48.452;9.216;2024-02-26T09:14:26;415.80;;;132.93;;
8407;SDS011;4241;48.452;9.216;2024-02-26T09:16:53;417.50;;;129.00;;
8407;SDS011;4241;48.452;9.216;2024-02-26T09:19:20;426.23;;;133.03;;
8407;SDS011;4241;48.452;9.216;2024-02-26T09:21:47;426.13;;;130.93;;
8407;SDS011;4241;48.452;9.216;2024-02-26T09:24:13;432.20;;;133.93;;
8407;SDS011;4241;48.452;9.216;2024-02-26T09:26:40;432.03;;;131.23;;
8407;SDS011;4241;48.452;9.216;2024-02-26T09:29:07;437.47;;;135.23;;
8407;SDS011;4241;48.452;9.216;2024-02-26T09:31:35;436.03;;;133.03;;
8407;SDS011;4241;48.452;9.216;2024-02-26T09:34:02;443.23;;;137.40;;
8407;SDS011;4241;48.452;9.216;2024-02-26T09:36:29;442.20;;;134.53;;
8407;SDS011;4241;48.452;9.216;2024-02-26T09:38:56;446.47;;;137.87;;
8407;SDS011;4241;48.452;9.216;2024-02-26T09:41:23;439.13;;;135.47;;
8407;SDS011;4241;48.452;9.216;2024-02-26T09:43:52;445.67;;;138.73;;
8407;SDS011;4241;48.452;9.216;2024-02-26T09:46:24;442.80;;;133.90;;
8407;SDS011;4241;48.452;9.216;2024-02-26T09:48:53;449.30;;;139.73;;
8407;SDS011;4241;48.452;9.216;2024-02-26T09:51:20;444.73;;;136.10;;
8407;SDS011;4241;48.452;9.216;2024-02-26T09:53:49;446.43;;;137.50;;
8407;SDS011;4241;48.452;9.216;2024-02-26T09:56:18;447.87;;;139.47;;
8407;SDS011;4241;48.452;9.216;2024-02-26T09:58:45;447.97;;;139.87;;
8407;SDS011;4241;48.452;9.216;2024-02-26T10:01:17;452.77;;;141.90;;
8407;SDS011;4241;48.452;9.216;2024-02-26T10:03:47;447.97;;;138.87;;
8407;SDS011;4241;48.452;9.216;2024-02-26T10:06:19;457.90;;;146.07;;
8407;SDS011;4241;48.452;9.216;2024-02-26T10:08:46;449.20;;;139.93;;
8407;SDS011;4241;48.452;9.216;2024-02-26T10:11:13;454.70;;;144.03;;
8407;SDS011;4241;48.452;9.216;2024-02-26T10:13:42;449.83;;;140.17;;
8407;SDS011;4241;48.452;9.216;2024-02-26T10:16:08;464.70;;;153.30;;
8407;SDS011;4241;48.452;9.216;2024-02-26T10:18:45;449.50;;;141.43;;
8407;SDS011;4241;48.452;9.216;2024-02-26T10:21:12;454.03;;;144.80;;
8407;SDS011;4241;48.452;9.216;2024-02-26T10:23:42;445.10;;;141.00;;
8407;SDS011;4241;48.452;9.216;2024-02-26T10:26:09;450.57;;;152.70;;
8407;SDS011;4241;48.452;9.216;2024-02-26T10:28:37;452.93;;;154.23;;
8407;SDS011;4241;48.452;9.216;2024-02-26T10:31:05;453.17;;;150.33;;
8407;SDS011;4241;48.452;9.216;2024-02-26T10:33:32;450.80;;;149.80;;
8407;SDS011;4241;48.452;9.216;2024-02-26T10:36:00;451.40;;;152.80;;
8407;SDS011;4241;48.452;9.216;2024-02-26T10:38:27;454.07;;;160.50;;
8407;SDS011;4241;48.452;9.216;2024-02-26T10:40:56;457.57;;;147.93;;
8407;SDS011;4241;48.452;9.216;2024-02-26T10:43:25;461.13;;;153.77;;
8407;SDS011;4241;48.452;9.216;2024-02-26T10:45:52;454.23;;;150.87;;
8407;SDS011;4241;48.452;9.216;2024-02-26T10:48:20;453.20;;;149.10;;
8407;SDS011;4241;48.452;9.216;2024-02-26T10:50:48;450.30;;;149.03;;
8407;SDS011;4241;48.452;9.216;2024-02-26T10:53:16;453.27;;;146.70;;
8407;SDS011;4241;48.452;9.216;2024-02-26T10:55:46;450.00;;;144.07;;
8407;SDS011;4241;48.452;9.216;2024-02-26T10:58:16;450.73;;;146.13;;
8407;SDS011;4241;48.452;9.216;2024-02-26T11:00:44;452.43;;;149.43;;
8407;SDS011;4241;48.452;9.216;2024-02-26T11:03:13;454.03;;;147.53;;
8407;SDS011;4241;48.452;9.216;2024-02-26T11:05:42;448.37;;;143.50;;
8407;SDS011;4241;48.452;9.216;2024-02-26T11:08:10;448.90;;;143.40;;
8407;SDS011;4241;48.452;9.216;2024-02-26T11:10:38;445.30;;;144.33;;
8407;SDS011;4241;48.452;9.216;2024-02-26T11:13:06;445.43;;;141.30;;
8407;SDS011;4241;48.452;9.216;2024-02-26T11:15:37;446.47;;;147.17;;
8407;SDS011;4241;48.452;9.216;2024-02-26T11:18:05;449.13;;;144.40;;
8407;SDS011;4241;48.452;9.216;2024-02-26T11:20:34;447.47;;;142.50;;
8407;SDS011;4241;48.452;9.216;2024-02-26T11:23:06;443.90;;;142.03;;
8407;SDS011;4241;48.452;9.216;2024-02-26T11:25:34;445.17;;;142.63;;
8407;SDS011;4241;48.452;9.216;2024-02-26T11:28:05;446.93;;;150.80;;
8407;SDS011;4241;48.452;9.216;2024-02-26T11:30:36;451.70;;;152.13;;
8407;SDS011;4241;48.452;9.216;2024-02-26T11:33:08;449.37;;;159.93;;
8407;SDS011;4241;48.452;9.216;2024-02-26T11:35:37;448.33;;;155.40;;
8407;SDS011;4241;48.452;9.216;2024-02-26T11:38:04;446.40;;;147.17;;
8407;SDS011;4241;48.452;9.216;2024-02-26T11:40:32;451.23;;;163.37;;
8407;SDS011;4241;48.452;9.216;2024-02-26T11:43:04;459.50;;;181.93;;
8407;SDS011;4241;48.452;9.216;2024-02-26T11:48:20;454.00;;;144.57;;
8407;SDS011;4241;48.452;9.216;2024-02-26T11:50:48;451.90;;;142.60;;
8407;SDS011;4241;48.452;9.216;2024-02-26T11:53:23;454.77;;;144.70;;
8407;SDS011;4241;48.452;9.216;2024-02-26T11:58:46;451.10;;;142.67;;
8407;SDS011;4241;48.452;9.216;2024-02-26T12:04:11;457.37;;;148.10;;
8407;SDS011;4241;48.452;9.216;2024-02-26T12:06:43;451.07;;;146.13;;
8407;SDS011;4241;48.452;9.216;2024-02-26T12:09:12;457.93;;;171.07;;
8407;SDS011;4241;48.452;9.216;2024-02-26T12:11:39;471.57;;;178.10;;
8407;SDS011;4241;48.452;9.216;2024-02-26T12:14:08;454.90;;;146.70;;
8407;SDS011;4241;48.452;9.216;2024-02-26T12:16:36;456.97;;;158.00;;
8407;SDS011;4241;48.452;9.216;2024-02-26T12:19:06;459.57;;;168.20;;
8407;SDS011;4241;48.452;9.216;2024-02-26T12:21:34;457.97;;;149.97;;
8407;SDS011;4241;48.452;9.216;2024-02-26T12:24:11;459.63;;;153.13;;
8407;SDS011;4241;48.452;9.216;2024-02-26T12:26:41;458.37;;;148.73;;
8407;SDS011;4241;48.452;9.216;2024-02-26T12:29:08;456.33;;;147.80;;
8407;SDS011;4241;48.452;9.216;2024-02-26T12:31:36;459.50;;;154.43;;
8407;SDS011;4241;48.452;9.216;2024-02-26T12:34:03;460.77;;;152.23;;
8407;SDS011;4241;48.452;9.216;2024-02-26T12:36:32;462.13;;;153.80;;
8407;SDS011;4241;48.452;9.216;2024-02-26T12:39:01;462.63;;;165.20;;
8407;SDS011;4241;48.452;9.216;2024-02-26T12:41:30;461.53;;;154.93;;
8407;SDS011;4241;48.452;9.216;2024-02-26T12:43:57;458.43;;;151.43;;
8407;SDS011;4241;48.452;9.216;2024-02-26T12:46:25;462.00;;;153.73;;
8407;SDS011;4241;48.452;9.216;2024-02-26T12:48:52;455.93;;;147.60;;
8407;SDS011;4241;48.452;9.216;2024-02-26T12:51:23;461.87;;;158.53;;
8407;SDS011;4241;48.452;9.216;2024-02-26T12:53:51;457.77;;;152.27;;
8407;SDS011;4241;48.452;9.216;2024-02-26T12:56:19;460.83;;;182.50;;
8407;SDS011;4241;48.452;9.216;2024-02-26T12:58:47;460.83;;;154.40;;
8407;SDS011;4241;48.452;9.216;2024-02-26T13:01:15;459.17;;;150.17;;
8407;SDS011;4241;48.452;9.216;2024-02-26T13:03:44;461.27;;;167.87;;
8407;SDS011;4241;48.452;9.216;2024-02-26T13:06:11;458.67;;;158.90;;
8407;SDS011;4241;48.452;9.216;2024-02-26T13:08:40;457.43;;;174.23;;
8407;SDS011;4241;48.452;9.216;2024-02-26T13:11:07;462.77;;;180.13;;
8407;SDS011;4241;48.452;9.216;2024-02-26T13:13:34;460.50;;;152.87;;
8407;SDS011;4241;48.452;9.216;2024-02-26T13:16:02;469.43;;;160.87;;
8407;SDS011;4241;48.452;9.216;2024-02-26T13:18:31;461.90;;;152.90;;
8407;SDS011;4241;48.452;9.216;2024-02-26T13:21:11;460.47;;;154.63;;
8407;SDS011;4241;48.452;9.216;2024-02-26T13:23:41;460.80;;;152.83;;
8407;SDS011;4241;48.452;9.216;2024-02-26T13:26:11;461.40;;;168.87;;
8407;SDS011;4241;48.452;9.216;2024-02-26T13:28:39;456.37;;;148.27;;
8407;SDS011;4241;48.452;9.216;2024-02-26T13:31:06;457.37;;;150.33;;
8407;SDS011;4241;48.452;9.216;2024-02-26T13:33:34;456.50;;;160.73;;
8407;SDS011;4241;48.452;9.216;2024-02-26T13:36:02;452.63;;;157.60;;
8407;SDS011;4241;48.452;9.216;2024-02-26T13:38:30;452.13;;;150.80;;
8407;SDS011;4241;48.452;9.216;2024-02-26T13:40:59;460.17;;;166.63;;
8407;SDS011;4241;48.452;9.216;2024-02-26T13:43:26;459.00;;;155.10;;
8407;SDS011;4241;48.452;9.216;2024-02-26T13:45:53;452.80;;;158.10;;
8407;SDS011;4241;48.452;9.216;2024-02-26T13:48:20;449.97;;;152.63;;
8407;SDS011;4241;48.452;9.216;2024-02-26T13:50:47;459.20;;;160.93;;
8407;SDS011;4241;48.452;9.216;2024-02-26T13:53:14;451.67;;;153.63;;
8407;SDS011;4241;48.452;9.216;2024-02-26T13:55:41;449.73;;;146.77;;
8407;SDS011;4241;48.452;9.216;2024-02-26T13:58:11;449.17;;;145.67;;
8407;SDS011;4241;48.452;9.216;2024-02-26T14:00:39;452.13;;;152.30;;
8407;SDS011;4241;48.452;9.216;2024-02-26T14:03:06;453.60;;;155.03;;
8407;SDS011;4241;48.452;9.216;2024-02-26T14:05:33;453.93;;;152.00;;
8407;SDS011;4241;48.452;9.216;2024-02-26T14:08:00;459.53;;;155.30;;
8407;SDS011;4241;48.452;9.216;2024-02-26T14:10:27;456.30;;;152.80;;
8407;SDS011;4241;48.452;9.216;2024-02-26T14:12:55;459.43;;;155.73;;
8407;SDS011;4241;48.452;9.216;2024-02-26T14:15:23;454.47;;;150.07;;
8407;SDS011;4241;48.452;9.216;2024-02-26T14:17:50;451.13;;;148.97;;
8407;SDS011;4241;48.452;9.216;2024-02-26T14:20:21;457.57;;;153.70;;
8407;SDS011;4241;48.452;9.216;2024-02-26T14:22:48;453.20;;;155.23;;
8407;SDS011;4241;48.452;9.216;2024-02-26T14:25:15;460.43;;;165.30;;
8407;SDS011;4241;48.452;9.216;2024-02-26T14:27:42;465.90;;;165.87;;
8407;SDS011;4241;48.452;9.216;2024-02-26T14:30:09;464.37;;;158.20;;
8407;SDS011;4241;48.452;9.216;2024-02-26T14:32:38;454.90;;;154.10;;